This is the latest recevied weather packets stored in our database for station/object K0APR. If no packets are shown the sender has not sent any weather packets the latest 10 day(s).
| Time | Temp. | Humidity | Pressure | Rain* | Wind** | Luminosity | Snow |
|---|---|---|---|---|---|---|---|
| 1788284649 | 27.22° C | 59% | 1015.5 hPa | 0 mm | - | 211 W/m² | - |
| 1788284344 | 26.67° C | 59% | 1015.5 hPa | 0 mm | - | 193 W/m² | - |
| 1788284039 | 27.22° C | 59% | 1015.5 hPa | 0 mm | - | 280 W/m² | - |
| 1788283735 | 27.22° C | 59% | 1015.1 hPa | 0 mm | - | 422 W/m² | - |
| 1788283434 | 26.67° C | 59% | 1015.1 hPa | 0 mm | - | 227 W/m² | - |
| 1788283133 | 26.67° C | 61% | 1015.5 hPa | 0 mm | - | 194 W/m² | - |
| 1788282832 | 27.22° C | 59% | 1015.1 hPa | 0 mm | - | 494 W/m² | - |
| 1788282530 | 26.67° C | 62% | 1014.7 hPa | 0 mm | - | 636 W/m² | - |
| 1788282226 | 25.56° C | 63% | 1014.7 hPa | 0 mm | - | 523 W/m² | - |
| 1788281920 | 26.11° C | 61% | 1014.7 hPa | 0 mm | - | 196 W/m² | - |
| 1788281619 | 27.22° C | 60% | 1015.1 hPa | 0 mm | - | 579 W/m² | - |
| 1788281317 | 26.11° C | 61% | 1015.5 hPa | 0 mm | - | 624 W/m² | - |
| 1788281012 | 25.56° C | 63% | 1015.8 hPa | 0 mm | - | 599 W/m² | - |
| 1788280732 | 25.56° C | 65% | 1015.5 hPa | 0 mm | - | 478 W/m² | - |
| 1788280406 | 25.56° C | 64% | 1015.5 hPa | 0 mm | - | 544 W/m² | - |
| 1788280102 | 25° C | 66% | 1015.8 hPa | 0 mm | - | 303 W/m² | - |
| 1788279800 | 25° C | 66% | 1015.8 hPa | 0 mm | - | 331 W/m² | - |
| 1788279500 | 25° C | 66% | 1015.8 hPa | 0 mm | - | 510 W/m² | - |
| 1788279194 | 25° C | 65% | 1015.8 hPa | 0 mm | - | 498 W/m² | - |
| 1788278890 | 23.89° C | 68% | 1015.8 hPa | 0 mm | - | 408 W/m² | - |
| 1788278586 | 23.89° C | 68% | 1015.8 hPa | 0 mm | - | 318 W/m² | - |
| 1788278285 | 23.89° C | 69% | 1015.8 hPa | 0 mm | - | 261 W/m² | - |
| 1788277980 | 23.89° C | 68% | 1015.8 hPa | 0 mm | - | 224 W/m² | - |
| 1788277676 | 23.89° C | 68% | 1016.1 hPa | 0 mm | - | 196 W/m² | - |
| 1788277370 | 23.89° C | 68% | 1015.8 hPa | 0 mm | - | 185 W/m² | - |
* Rain latest hour (hover to see other rain measurements)
** Current wind speed in m/s (hover to see current wind gust speed)